Aviation Digital Data Service (ADDS)

Output produced by METARs form (1336 UTC 15 November 2018)
found at http://www.aviationweather.gov/metar/data/
 
KJAC 151124Z 1512/1612 02007KT P6SM FEW050 SCT200 
     FM151800 19006KT P6SM FEW070 SCT200 
     FM160200 22007KT P6SM FEW050 SCT090 AMD LTD TO CLD VIS AND WIND
       
KJAN 151150Z 1512/1612 30007KT P6SM FEW009 
     FM151330 30008KT P6SM SKC
       
KJAX 151301Z 1513/1612 32010KT P6SM OVC009 
     FM151500 30008KT P6SM SCT007 BKN010 
     FM152100 29007KT P6SM BKN015 OVC120 
     FM160200 29005KT P6SM SCT020
       
KJBR 151135Z 1512/1612 28005KT P6SM BKN025 
     TEMPO 1512/1515 BKN015 
     FM151600 26005KT P6SM SCT030 
     FM152300 21004KT P6SM SKC
       
KJFK 151331Z 1514/1618 06011KT P6SM FEW030 OVC120 
     FM151800 07012KT 2SM -SNPL BKN030 OVC080 
     TEMPO 1518/1520 1SM -SN BKN015 OVC030 
     FM152100 07014G22KT 2SM -RAPL OVC010 
     FM160000 07019G30KT 4SM -RA BR OVC009 
     FM160300 07023G34KT 4SM -RA BR OVC010 WS020/09050KT 
     FM161000 03016G28KT 4SM -RA BR OVC010 
     FM161200 33020G28KT P6SM VCSH BKN015 BKN030 
     FM161500 30019G26KT P6SM SCT040
       
KJER 151120Z 1512/1612 VRB06KT P6SM SCT200
       
KJHW 151129Z 1512/1612 14010KT P6SM BKN200 
     FM151700 14011G17KT 5SM -FZRAPL OVC040 
     FM152000 14012KT 1SM -SNPL OVC012 
     FM160200 14008KT 1SM -SN OVC007 
     FM160500 VRB03KT 1SM -SN OVC003 
     FM161100 24007KT P6SM OVC003
       
KJMS 151133Z 1512/1612 27009KT P6SM SCT250 
     FM151600 31012KT P6SM BKN080 
     FM151700 33018G26KT P6SM VCSH OVC020 
     FM152300 32015KT P6SM OVC020
       
KJST 151328Z 1513/1612 11007KT 3SM -FZRAPL OVC040 
     FM151400 13010G16KT 2SM -FZRASNPL OVC015 
     FM151500 13010G16KT 1/2SM SNPL OVC003 
     FM160000 11008KT 1 1/2SM -FZRA BR OVC003 
     FM160800 27013G20KT 1 1/2SM -SN BR OVC003